Time;durP1;ratioP1;P1;durP2;ratioP2;P2;SDS_P1;SDS_P2;PMS_P1;PMS_P2;Temp;Humidity;BMP_temperature;BMP_pressure;BME280_temperature;BME280_humidity;BME280_pressure;Samples;Min_cycle;Max_cycle;Signal;HPM_P1;HPM_P2
2024/02/20 00:00:02;;;;;;;31.05;11.70;;;9.20;99.90;;;8.53;100.00;103020.41;4185311;28;20477;-72
2024/02/20 00:02:03;;;;;;;25.75;11.80;;;9.20;99.90;;;8.52;100.00;103010.78;4184269;28;20029;-71
2024/02/20 00:04:06;;;;;;;32.22;11.77;;;9.20;99.90;;;8.49;100.00;103018.00;4167855;28;20555;-72
2024/02/20 00:06:07;;;;;;;34.15;12.13;;;9.20;99.90;;;8.37;100.00;103008.19;4184304;28;20393;-71
2024/02/20 00:08:08;;;;;;;25.33;9.98;;;9.10;99.90;;;8.41;100.00;103031.59;4185070;28;20063;-72
2024/02/20 00:10:13;;;;;;;23.27;10.50;;;9.10;99.90;;;8.41;100.00;103034.22;4185393;28;20451;-71
2024/02/20 00:12:14;;;;;;;21.52;10.50;;;9.10;99.90;;;8.47;100.00;103039.16;4184903;28;20056;-71
2024/02/20 00:14:15;;;;;;;20.80;10.38;;;9.10;99.90;;;8.50;100.00;103030.22;4184070;28;20029;-71
2024/02/20 00:16:16;;;;;;;20.98;10.98;;;9.10;99.90;;;8.50;100.00;103022.34;4184005;28;20127;-72
2024/02/20 00:18:17;;;;;;;20.15;10.13;;;9.20;99.90;;;8.56;100.00;103022.84;4184871;28;20028;-72
2024/02/20 00:20:18;;;;;;;20.88;10.40;;;9.20;99.90;;;8.55;100.00;103026.41;4183910;28;20017;-72
2024/02/20 00:22:19;;;;;;;21.20;11.20;;;9.20;99.90;;;8.53;100.00;103024.81;4185070;28;20032;-71
2024/02/20 00:24:19;;;;;;;24.92;11.13;;;9.20;99.90;;;8.56;100.00;103025.47;4185155;28;20443;-72
2024/02/20 00:26:20;;;;;;;17.45;10.18;;;9.20;99.90;;;8.60;100.00;103028.78;4185199;28;20459;-71
2024/02/20 00:28:21;;;;;;;19.77;9.85;;;9.20;99.90;;;8.66;100.00;103031.91;4183959;28;20072;-72
2024/02/20 00:30:22;;;;;;;20.85;9.88;;;9.30;99.90;;;8.67;100.00;103023.06;4183789;28;20036;-71
2024/02/20 00:32:23;;;;;;;21.17;9.77;;;9.30;99.90;;;8.67;100.00;103020.44;4183540;28;20021;-72
2024/02/20 00:34:24;;;;;;;24.50;10.68;;;9.30;99.90;;;8.69;100.00;103012.47;4183806;28;20040;-72
2024/02/20 00:36:25;;;;;;;17.25;9.90;;;9.40;99.90;;;8.78;100.00;103025.94;4178663;28;20028;-72
2024/02/20 00:38:26;;;;;;;15.98;9.18;;;9.40;99.90;;;8.81;100.00;103030.19;4185163;28;20083;-72
2024/02/20 00:40:27;;;;;;;16.98;10.35;;;9.40;99.90;;;8.82;100.00;103022.19;4185152;28;20024;-72
2024/02/20 00:42:28;;;;;;;21.35;10.57;;;9.50;99.90;;;8.84;100.00;103025.56;4184905;28;20025;-72
2024/02/20 00:44:28;;;;;;;21.50;10.55;;;9.50;99.90;;;8.80;100.00;103015.31;4183941;28;20044;-72
2024/02/20 00:46:29;;;;;;;18.15;10.40;;;9.50;99.90;;;8.86;100.00;103021.09;4183772;28;20028;-72
2024/02/20 00:48:30;;;;;;;17.98;10.25;;;9.50;99.90;;;8.89;100.00;103023.53;4183517;28;20036;-72
2024/02/20 00:50:31;;;;;;;22.83;10.15;;;9.50;99.90;;;8.91;100.00;103015.53;4185298;28;20028;-72
2024/02/20 00:52:32;;;;;;;17.48;9.98;;;9.50;99.90;;;8.92;100.00;103014.63;4183894;28;20029;-72
2024/02/20 00:54:33;;;;;;;18.27;9.65;;;9.60;99.90;;;8.87;100.00;103011.38;4185025;28;20029;-72
2024/02/20 00:56:34;;;;;;;18.05;10.18;;;9.60;99.90;;;8.88;100.00;103016.56;4183940;28;20021;-72
2024/02/20 00:58:35;;;;;;;18.75;9.68;;;9.60;99.90;;;8.89;100.00;103013.00;4184839;28;20032;-72
2024/02/20 01:00:35;;;;;;;22.33;10.32;;;9.50;99.90;;;8.88;100.00;103010.47;4184948;28;20068;-72
2024/02/20 01:02:36;;;;;;;20.30;9.38;;;9.50;99.90;;;8.87;100.00;102992.97;4166869;28;20410;-72
2024/02/20 01:04:40;;;;;;;18.55;8.80;;;9.50;99.90;;;8.86;100.00;102991.28;4183692;28;20040;-72
2024/02/20 01:06:41;;;;;;;23.98;10.43;;;9.50;99.90;;;8.79;100.00;102990.78;4184522;28;20044;-72
2024/02/20 01:08:42;;;;;;;22.92;9.60;;;9.50;99.90;;;8.78;100.00;102986.44;4184530;28;20035;-72
2024/02/20 01:10:43;;;;;;;25.42;10.30;;;9.50;99.90;;;8.81;100.00;102993.34;4183651;28;20451;-72
2024/02/20 01:12:44;;;;;;;18.67;10.15;;;9.50;99.90;;;8.83;100.00;102987.06;4184748;28;20033;-72
2024/02/20 01:14:45;;;;;;;26.30;11.30;;;9.50;99.90;;;8.84;100.00;102983.47;4184682;28;20025;-72
2024/02/20 01:16:46;;;;;;;23.95;11.35;;;9.50;99.90;;;8.86;100.00;102980.75;4183387;28;20025;-72
2024/02/20 01:18:47;;;;;;;17.35;10.02;;;9.50;99.90;;;8.87;100.00;102980.66;4184919;28;20024;-72
2024/02/20 01:20:48;;;;;;;23.15;11.23;;;9.60;99.90;;;8.86;100.00;102975.50;4184616;28;20056;-72
2024/02/20 01:22:50;;;;;;;25.05;10.20;;;9.50;99.90;;;8.81;100.00;102967.84;4184402;28;20029;-72
2024/02/20 01:24:51;;;;;;;26.73;12.00;;;9.50;99.90;;;8.75;100.00;102967.41;4185850;28;20021;-72
2024/02/20 01:26:52;;;;;;;25.70;11.07;;;9.50;99.90;;;8.67;100.00;102962.56;4186628;28;20021;-72
2024/02/20 01:28:53;;;;;;;20.40;10.13;;;9.40;99.90;;;8.61;100.00;102960.28;4169958;28;20437;-72
2024/02/20 01:30:54;;;;;;;23.83;12.25;;;9.30;99.90;;;8.58;100.00;102959.63;4186527;28;20055;-72
2024/02/20 01:32:57;;;;;;;23.42;11.20;;;9.30;99.90;;;8.54;100.00;102964.19;4184271;28;20076;-72
2024/02/20 01:34:58;;;;;;;23.70;12.43;;;9.20;99.90;;;8.59;100.00;102967.44;4171374;28;20469;-72
2024/02/20 01:36:59;;;;;;;27.23;12.10;;;9.30;99.90;;;8.62;100.00;102964.63;4173888;28;20040;-72
2024/02/20 01:39:00;;;;;;;25.73;11.63;;;9.30;99.90;;;8.66;100.00;102968.75;4186284;28;20028;-72
2024/02/20 01:41:01;;;;;;;26.13;12.50;;;9.30;99.90;;;8.65;100.00;102966.22;4187643;28;20420;-72
2024/02/20 01:43:05;;;;;;;21.20;11.40;;;9.30;99.90;;;8.66;100.00;102965.28;4186439;28;20152;-72
2024/02/20 01:45:08;;;;;;;20.75;10.63;;;9.30;99.90;;;8.71;100.00;102965.88;4186333;28;20031;-72
2024/02/20 01:47:09;;;;;;;21.08;10.07;;;9.40;99.90;;;8.71;100.00;102960.59;4185988;28;20120;-72
2024/02/20 01:49:10;;;;;;;23.85;10.85;;;9.40;99.90;;;8.78;100.00;102973.28;4186251;28;20460;-72
2024/02/20 01:51:12;;;;;;;23.17;11.23;;;9.40;99.90;;;8.78;100.00;102967.22;4186306;28;20036;-72
2024/02/20 01:53:14;;;;;;;28.58;11.32;;;9.40;99.90;;;8.71;100.00;102968.50;4186115;28;20021;-72
2024/02/20 01:55:18;;;;;;;23.63;10.73;;;9.40;99.90;;;8.69;100.00;102968.56;4186097;28;20104;-72
2024/02/20 01:57:19;;;;;;;;;;;9.40;99.90;;;8.59;100.00;102951.66;4170561;28;20509;-71
2024/02/20 01:59:20;;;;;;;20.50;9.80;;;9.40;99.90;;;8.57;100.00;102953.50;4179046;28;19913;-72
2024/02/20 02:01:24;;;;;;;24.15;10.15;;;9.30;99.90;;;8.55;100.00;102958.00;4169600;28;20026;-72
2024/02/20 02:03:25;;;;;;;;;;;9.30;99.90;;;8.45;100.00;102954.25;4170766;28;20032;-72
2024/02/20 02:05:26;;;;;;;18.85;9.82;;;9.20;99.90;;;8.38;100.00;102957.28;4170798;28;19909;-72
2024/02/20 02:07:27;;;;;;;20.50;9.93;;;9.20;99.90;;;8.33;100.00;102961.03;4176791;28;20017;-72
2024/02/20 02:09:28;;;;;;;20.75;9.57;;;9.10;99.90;;;8.26;100.00;102957.03;4187270;28;20028;-72
2024/02/20 02:11:29;;;;;;;24.92;10.35;;;9.00;99.90;;;8.12;100.00;102950.84;4186997;28;20071;-72
2024/02/20 02:13:29;;;;;;;22.63;8.43;;;8.90;99.90;;;8.12;100.00;102958.75;4186008;28;20025;-72
2024/02/20 02:15:30;;;;;;;21.08;9.13;;;8.80;99.90;;;8.02;100.00;102949.66;4186002;28;20083;-72
2024/02/20 02:17:31;;;;;;;18.83;8.70;;;8.80;99.90;;;8.02;100.00;102942.63;4185561;28;20040;-72
2024/02/20 02:19:32;;;;;;;20.00;8.55;;;8.70;99.90;;;7.97;100.00;102949.09;4186991;28;20421;-72
2024/02/20 02:21:33;;;;;;;16.67;7.60;;;8.70;99.90;;;7.87;100.00;102937.38;4187003;28;20048;-72
2024/02/20 02:23:34;;;;;;;17.10;7.82;;;8.60;99.90;;;7.79;100.00;102943.06;4162627;28;20118;-72
2024/02/20 02:25:35;;;;;;;21.50;8.80;;;8.50;99.90;;;7.70;100.00;102930.44;4170458;28;20030;-72
2024/02/20 02:27:37;;;;;;;21.58;9.00;;;8.50;99.90;;;7.62;100.00;102937.88;4178612;28;20017;-72
2024/02/20 02:29:38;;;;;;;21.10;8.35;;;8.40;99.90;;;7.57;100.00;102932.88;4172568;28;20055;-72
2024/02/20 02:31:39;;;;;;;20.45;7.88;;;8.40;99.90;;;7.57;100.00;102927.63;4185776;28;20017;-72
2024/02/20 02:33:40;;;;;;;14.00;7.70;;;8.30;99.90;;;7.53;100.00;102941.84;4186719;28;20378;-72
2024/02/20 02:35:40;;;;;;;25.92;9.13;;;8.30;99.90;;;7.51;100.00;102942.88;4184948;28;20078;-72
2024/02/20 02:37:41;;;;;;;14.27;7.28;;;8.20;99.90;;;7.45;100.00;102938.78;4186643;28;20063;-72
2024/02/20 02:39:42;;;;;;;19.17;7.63;;;8.20;99.90;;;7.39;100.00;102933.00;4185474;28;20021;-72
2024/02/20 02:41:43;;;;;;;16.55;7.45;;;8.10;99.90;;;7.32;100.00;102932.50;4185478;28;20041;-72
2024/02/20 02:43:45;;;;;;;14.70;6.53;;;8.00;99.90;;;7.24;100.00;102932.91;4186617;28;20527;-72
2024/02/20 02:45:45;;;;;;;17.88;7.65;;;8.00;99.90;;;7.20;100.00;102927.88;4186665;28;20028;-72
2024/02/20 02:47:46;;;;;;;15.20;7.03;;;7.90;99.90;;;7.22;100.00;102936.53;4185010;28;20021;-72
2024/02/20 02:49:47;;;;;;;14.38;7.05;;;7.90;99.90;;;7.17;100.00;102930.66;4186334;28;20053;-72
2024/02/20 02:51:48;;;;;;;15.63;6.82;;;7.80;99.90;;;7.13;100.00;102929.16;4185190;28;20040;-71
2024/02/20 02:53:49;;;;;;;13.07;6.95;;;7.80;99.90;;;7.08;100.00;102933.78;4186349;28;20496;-72
2024/02/20 02:55:50;;;;;;;13.88;7.22;;;7.70;99.90;;;7.05;100.00;102924.28;4186491;28;20032;-71
2024/02/20 02:57:51;;;;;;;14.75;7.38;;;7.70;99.90;;;6.96;100.00;102923.94;4186336;28;20526;-71
2024/02/20 02:59:52;;;;;;;13.18;6.50;;;7.60;99.90;;;6.91;100.00;102923.31;4185241;28;20028;-72
2024/02/20 03:01:52;;;;;;;17.52;7.10;;;7.50;99.90;;;6.82;100.00;102916.78;4184977;28;20032;-71
2024/02/20 03:03:53;;;;;;;16.70;7.13;;;7.50;99.90;;;6.72;100.00;102909.47;4186354;28;20024;-71
2024/02/20 03:05:54;;;;;;;17.38;6.60;;;7.50;99.90;;;6.72;100.00;102918.16;4186280;28;20506;-71
2024/02/20 03:07:56;;;;;;;12.48;6.38;;;7.40;99.90;;;6.70;100.00;102917.41;4184877;28;20447;-71
2024/02/20 03:09:57;;;;;;;13.60;6.80;;;7.40;99.90;;;6.65;100.00;102916.78;4186052;28;20025;-71
2024/02/20 03:11:58;;;;;;;14.73;6.60;;;7.30;99.90;;;6.58;100.00;102913.63;4185781;28;20079;-71
2024/02/20 03:13:58;;;;;;;15.60;5.97;;;7.30;99.90;;;6.52;100.00;102907.84;4184995;28;20025;-71
2024/02/20 03:16:06;;;;;;;19.10;7.40;;;7.20;99.90;;;6.49;100.00;102907.97;4168671;28;20075;-71
2024/02/20 03:18:07;;;;;;;16.23;7.13;;;7.20;99.90;;;6.40;100.00;102897.97;4185697;28;20112;-72
2024/02/20 03:20:14;;;;;;;17.58;6.93;;;7.10;99.90;;;6.41;100.00;102913.63;4185059;28;20508;-72
2024/02/20 03:22:15;;;;;;;12.82;6.63;;;7.10;99.90;;;6.31;100.00;102896.66;4184500;28;20097;-72
2024/02/20 03:24:16;;;;;;;15.73;5.72;;;7.00;99.90;;;6.29;100.00;102897.66;4189013;28;20598;-71
2024/02/20 03:26:18;;;;;;;8.90;5.43;;;7.00;99.90;;;6.22;100.00;102898.88;4184700;28;20021;-71
2024/02/20 03:28:19;;;;;;;14.75;6.30;;;7.00;99.90;;;6.13;100.00;102895.78;4185674;28;20032;-72
2024/02/20 03:30:20;;;;;;;11.38;5.75;;;6.90;99.90;;;6.04;100.00;102903.22;4185754;28;20029;-71
2024/02/20 03:32:22;;;;;;;12.75;6.30;;;6.80;99.90;;;5.95;100.00;102907.16;4183345;28;20033;-72
2024/02/20 03:34:23;;;;;;;13.70;5.95;;;6.70;99.90;;;5.89;100.00;102903.97;4184700;28;20066;-71
2024/02/20 03:36:24;;;;;;;19.17;6.80;;;6.60;99.90;;;5.84;100.00;102903.31;4184444;28;20496;-71
2024/02/20 03:38:25;;;;;;;11.23;6.15;;;6.60;99.90;;;5.78;100.00;102898.38;4185676;28;20447;-71
2024/02/20 03:40:26;;;;;;;12.85;6.32;;;6.50;99.90;;;5.78;100.00;102903.59;4184302;28;20025;-71
2024/02/20 03:42:27;;;;;;;12.00;5.68;;;6.60;99.90;;;5.83;100.00;102899.84;4184582;28;20063;-72
2024/02/20 03:44:28;;;;;;;12.85;5.65;;;6.60;99.90;;;5.96;100.00;102897.53;4185766;28;20024;-71
2024/02/20 03:46:29;;;;;;;12.63;6.30;;;6.70;99.90;;;6.09;100.00;102901.25;4184986;28;20066;-71
2024/02/20 03:48:30;;;;;;;14.88;6.20;;;6.80;99.90;;;6.20;100.00;102906.81;4185215;28;20083;-72
2024/02/20 03:50:33;;;;;;;12.55;6.25;;;6.90;99.90;;;6.29;100.00;102910.75;4184145;28;20025;-72
2024/02/20 03:52:34;;;;;;;20.48;8.02;;;6.90;99.90;;;6.43;100.00;102906.53;4184501;28;20033;-72
2024/02/20 03:54:36;;;;;;;17.75;8.05;;;7.10;99.90;;;6.53;100.00;102899.91;4184417;28;20049;-71
2024/02/20 03:56:36;;;;;;;13.32;6.28;;;7.20;99.90;;;6.64;100.00;102908.06;4185607;28;20059;-71
2024/02/20 03:58:38;;;;;;;16.15;7.38;;;7.30;99.90;;;6.67;100.00;102900.03;4185330;28;20078;-71
2024/02/20 04:00:39;;;;;;;13.38;5.65;;;7.40;99.90;;;6.77;100.00;102896.97;4184355;28;20030;-72
2024/02/20 04:02:44;;;;;;;14.18;5.75;;;7.40;99.90;;;6.81;100.00;102901.94;4185264;28;20033;-72
2024/02/20 04:04:45;;;;;;;11.50;6.60;;;7.50;99.90;;;6.86;100.00;102907.81;4184294;28;20035;-71
2024/02/20 04:06:45;;;;;;;11.30;5.72;;;7.60;99.90;;;6.92;100.00;102912.75;4184001;28;20041;-72
2024/02/20 04:08:46;;;;;;;24.52;6.32;;;7.60;99.90;;;6.97;100.00;102918.59;4184030;28;20028;-72
2024/02/20 04:10:47;;;;;;;11.88;6.30;;;7.70;99.90;;;6.97;100.00;102899.38;4185439;28;20032;-72
2024/02/20 04:12:48;;;;;;;14.10;5.03;;;7.70;99.90;;;7.04;100.00;102903.41;4184203;28;20029;-72
2024/02/20 04:14:49;;;;;;;23.35;6.38;;;7.70;99.90;;;7.08;100.00;102903.13;4167418;28;20026;-71
2024/02/20 04:16:49;;;;;;;11.48;6.60;;;7.80;99.90;;;7.15;100.00;102907.16;4185062;28;20044;-72
2024/02/20 04:18:50;;;;;;;30.08;6.55;;;7.80;99.90;;;7.19;100.00;102902.59;4183918;28;20080;-72
2024/02/20 04:20:51;;;;;;;9.50;5.32;;;7.90;99.90;;;7.28;100.00;102911.75;4184082;28;20428;-72
2024/02/20 04:22:52;;;;;;;10.05;5.63;;;7.90;99.90;;;7.29;100.00;102906.41;4185016;28;20047;-72
2024/02/20 04:24:53;;;;;;;18.48;6.57;;;8.00;99.90;;;7.29;100.00;102916.06;4184181;28;20021;-72
2024/02/20 04:26:56;;;;;;;29.88;6.47;;;8.00;99.90;;;7.32;100.00;102908.03;4183920;28;20036;-71
2024/02/20 04:28:57;;;;;;;24.25;6.40;;;8.00;99.90;;;7.32;100.00;102918.53;4185028;28;20040;-72
2024/02/20 04:30:57;;;;;;;30.60;7.57;;;8.00;99.90;;;7.39;100.00;102918.13;4183886;28;20024;-72
2024/02/20 04:32:58;;;;;;;20.85;6.57;;;8.10;99.90;;;7.43;100.00;102911.78;4185045;28;20024;-72
2024/02/20 04:34:59;;;;;;;24.58;6.38;;;8.10;99.90;;;7.46;100.00;102903.75;4183976;28;20029;-72
2024/02/20 04:37:00;;;;;;;20.95;6.47;;;8.10;99.90;;;7.51;100.00;102917.47;4185253;28;20037;-72
2024/02/20 04:39:03;;;;;;;12.30;5.50;;;8.20;99.90;;;7.56;100.00;102914.56;4183608;28;20036;-72
2024/02/20 04:41:04;;;;;;;24.35;7.00;;;8.20;99.90;;;7.58;100.00;102913.56;4185022;28;20078;-72
2024/02/20 04:43:05;;;;;;;20.13;6.50;;;8.30;99.90;;;7.56;100.00;102907.53;4185063;28;20041;-72
2024/02/20 04:45:07;;;;;;;15.43;6.68;;;8.30;99.90;;;7.59;100.00;102912.63;4183101;28;20025;-72
2024/02/20 04:47:08;;;;;;;20.20;6.05;;;8.30;99.90;;;7.59;100.00;102911.78;4171813;28;20033;-72
2024/02/20 04:49:09;;;;;;;23.75;6.30;;;8.30;99.90;;;7.62;100.00;102915.09;4183759;28;20045;-71
2024/02/20 04:51:10;;;;;;;18.10;6.38;;;8.30;99.90;;;7.63;100.00;102905.44;4185154;28;20025;-72
2024/02/20 04:53:10;;;;;;;19.95;7.18;;;8.30;99.90;;;7.65;100.00;102914.06;4184923;28;20044;-72
2024/02/20 04:55:11;;;;;;;11.25;6.18;;;8.40;99.90;;;7.70;100.00;102923.41;4183932;28;20029;-72
2024/02/20 04:57:12;;;;;;;20.38;6.93;;;8.40;99.90;;;7.72;100.00;102918.06;4183701;28;20036;-71
2024/02/20 04:59:13;;;;;;;17.98;7.38;;;8.40;99.90;;;7.73;100.00;102922.38;4185254;28;20036;-72
2024/02/20 05:01:18;;;;;;;18.13;6.97;;;8.40;99.90;;;7.72;100.00;102929.41;4186915;28;20059;-72
2024/02/20 05:03:19;;;;;;;13.05;6.75;;;8.40;99.90;;;7.69;100.00;102929.59;4187546;28;20393;-72
2024/02/20 05:05:20;;;;;;;8.45;5.82;;;8.40;99.90;;;7.74;100.00;102935.44;4186987;28;20128;-72
2024/02/20 05:07:21;;;;;;;9.90;6.45;;;8.50;99.90;;;7.77;100.00;102940.50;4186856;28;20036;-72
2024/02/20 05:09:22;;;;;;;14.10;6.43;;;8.50;99.90;;;7.76;100.00;102933.56;4188297;28;20508;-72
2024/02/20 05:11:23;;;;;;;12.57;6.13;;;8.50;99.90;;;7.80;100.00;102934.22;4186965;28;20401;-72
2024/02/20 05:13:23;;;;;;;14.73;6.18;;;8.50;99.90;;;7.82;100.00;102938.47;4186857;28;20031;-72
2024/02/20 05:15:24;;;;;;;10.45;6.32;;;8.50;99.90;;;7.80;100.00;102931.59;4170221;28;20059;-72
2024/02/20 05:17:25;;;;;;;14.50;7.20;;;8.50;99.90;;;7.85;100.00;102931.38;4186518;28;20532;-72
2024/02/20 05:19:26;;;;;;;9.95;6.03;;;8.60;99.90;;;7.82;100.00;102933.22;4186660;28;20025;-72
2024/02/20 05:21:27;;;;;;;17.45;6.85;;;8.60;99.90;;;7.86;100.00;102927.78;4186869;28;20079;-71
2024/02/20 05:23:28;;;;;;;16.80;8.18;;;8.60;99.90;;;7.84;100.00;102925.25;4186762;28;20064;-72
2024/02/20 05:25:28;;;;;;;16.55;6.80;;;8.60;99.90;;;7.87;100.00;102930.34;4186681;28;20492;-72
2024/02/20 05:27:29;;;;;;;15.48;6.63;;;8.60;99.90;;;7.90;100.00;102929.31;4186425;28;20466;-72
2024/02/20 05:29:30;;;;;;;12.25;5.80;;;8.60;99.90;;;7.91;100.00;102931.88;4186534;28;20047;-72
2024/02/20 05:31:32;;;;;;;11.23;6.50;;;8.60;99.90;;;7.94;100.00;102930.84;4186583;28;20516;-72
2024/02/20 05:33:33;;;;;;;17.02;6.68;;;8.60;99.90;;;7.93;100.00;102930.00;4186466;28;20417;-72
2024/02/20 05:35:34;;;;;;;11.25;6.13;;;8.60;99.90;;;7.97;100.00;102936.78;4186515;28;20036;-72
2024/02/20 05:37:34;;;;;;;9.25;5.72;;;8.60;99.90;;;8.00;100.00;102934.00;4186406;28;20025;-72
2024/02/20 05:39:35;;;;;;;16.13;6.60;;;8.70;99.90;;;8.00;100.00;102930.53;4187405;28;20507;-72
2024/02/20 05:41:36;;;;;;;14.02;7.28;;;8.70;99.90;;;8.02;100.00;102928.66;4186367;28;20528;-72
2024/02/20 05:43:37;;;;;;;11.50;6.28;;;8.70;99.90;;;8.03;100.00;102932.97;4186380;28;20545;-72
2024/02/20 05:45:38;;;;;;;15.88;7.15;;;8.70;99.90;;;8.01;100.00;102921.69;4187315;28;20392;-72
2024/02/20 05:47:40;;;;;;;13.07;6.82;;;8.70;99.90;;;8.01;100.00;102921.69;4186055;28;20399;-72
2024/02/20 05:49:41;;;;;;;15.57;6.13;;;8.70;99.90;;;8.02;100.00;102911.09;4186158;28;20532;-72
2024/02/20 05:51:43;;;;;;;15.52;6.50;;;8.70;99.90;;;8.01;100.00;102914.66;4186238;28;20029;-72
2024/02/20 05:53:44;;;;;;;12.65;5.50;;;8.70;99.90;;;8.03;100.00;102920.69;4186239;28;20093;-72
2024/02/20 05:55:45;;;;;;;10.57;5.57;;;8.70;99.90;;;8.02;100.00;102928.66;4186142;28;20017;-72
2024/02/20 05:57:46;;;;;;;11.52;5.53;;;8.70;99.90;;;8.04;100.00;102926.75;4186308;28;20045;-71
2024/02/20 05:59:46;;;;;;;12.73;5.32;;;8.70;99.90;;;8.07;100.00;102923.97;4186398;28;20017;-72
2024/02/20 06:01:47;;;;;;;12.32;4.72;;;8.70;99.90;;;8.07;100.00;102921.34;4186992;28;20037;-72
2024/02/20 06:03:48;;;;;;;12.10;4.95;;;8.70;99.90;;;8.13;100.00;102934.13;4169572;28;20029;-71
2024/02/20 06:05:49;;;;;;;13.45;5.47;;;8.80;99.90;;;8.12;100.00;102929.84;4187265;28;20029;-72
2024/02/20 06:07:51;;;;;;;10.88;4.53;;;8.80;99.90;;;8.12;100.00;102933.28;4186938;28;20029;-72
2024/02/20 06:09:52;;;;;;;13.15;5.10;;;8.80;99.90;;;8.13;100.00;102931.50;4185639;28;20028;-72
2024/02/20 06:11:53;;;;;;;16.23;4.65;;;8.80;99.90;;;8.18;100.00;102930.31;4186066;28;20160;-72
2024/02/20 06:13:54;;;;;;;14.52;4.90;;;8.80;99.90;;;8.18;100.00;102929.47;4187150;28;20032;-72
2024/02/20 06:15:55;;;;;;;18.67;6.28;;;8.80;99.90;;;8.16;100.00;102926.94;4185947;28;20028;-72
2024/02/20 06:17:55;;;;;;;18.08;7.95;;;8.90;99.90;;;8.01;100.00;102905.91;4186303;28;20032;-72
2024/02/20 06:19:56;;;;;;;19.55;7.70;;;8.80;99.90;;;8.10;100.00;102944.81;4185458;28;20029;-72
2024/02/20 06:21:57;;;;;;;14.45;7.18;;;8.80;99.90;;;8.07;100.00;102937.09;4186973;28;20036;-72
2024/02/20 06:23:58;;;;;;;13.73;6.82;;;8.80;99.90;;;8.01;100.00;102929.56;4186690;28;20489;-72
2024/02/20 06:25:59;;;;;;;17.48;7.78;;;8.70;99.90;;;8.03;100.00;102930.34;4185700;28;20477;-72
2024/02/20 06:28:00;;;;;;;15.23;7.72;;;8.70;99.90;;;8.00;100.00;102920.84;4184878;28;20025;-72
2024/02/20 06:30:02;;;;;;;14.05;7.55;;;8.70;99.90;;;8.02;100.00;102918.13;4184456;28;20062;-72
2024/02/20 06:32:03;;;;;;;12.80;6.93;;;8.70;99.90;;;8.03;100.00;102915.44;4167582;28;20029;-73
2024/02/20 06:34:07;;;;;;;13.52;6.97;;;8.70;99.90;;;8.03;100.00;102917.22;4185308;28;20032;-72
2024/02/20 06:36:09;;;;;;;18.13;8.48;;;8.70;99.90;;;8.02;100.00;102915.50;4186884;28;20021;-72
2024/02/20 06:38:10;;;;;;;19.23;7.85;;;8.70;99.90;;;7.96;100.00;102907.97;4185506;28;20032;-72
2024/02/20 06:40:10;;;;;;;23.83;9.43;;;8.70;99.90;;;7.99;100.00;102923.56;4186563;28;20029;-72
2024/02/20 06:42:11;;;;;;;16.30;8.05;;;8.70;99.90;;;7.95;100.00;102922.88;4186069;28;20029;-72
2024/02/20 06:44:12;;;;;;;14.13;6.30;;;8.70;99.90;;;7.95;100.00;102935.16;4168763;28;20072;-72
2024/02/20 06:46:13;;;;;;;20.23;8.77;;;8.60;99.90;;;7.92;100.00;102935.34;4185364;28;20039;-72
2024/02/20 06:48:14;;;;;;;13.00;6.63;;;8.60;99.90;;;7.94;100.00;102941.38;4175770;28;20029;-72
2024/02/20 06:50:16;;;;;;;15.43;6.93;;;8.60;99.90;;;7.94;100.00;102944.00;4186674;28;20048;-72
2024/02/20 06:52:17;;;;;;;14.73;7.00;;;8.60;99.90;;;7.98;100.00;102935.84;4185208;28;20049;-72
2024/02/20 06:54:17;;;;;;;14.23;7.32;;;8.60;99.90;;;7.99;100.00;102939.31;4186015;28;20374;-72
2024/02/20 06:56:18;;;;;;;13.45;7.03;;;8.70;99.90;;;8.00;100.00;102930.53;4185372;28;20028;-72
2024/02/20 06:58:19;;;;;;;12.68;5.55;;;8.70;99.90;;;8.01;100.00;102933.03;4185063;28;20076;-72
2024/02/20 07:00:20;;;;;;;10.13;6.05;;;8.70;99.90;;;8.04;100.00;102929.41;4185036;28;20068;-72
2024/02/20 07:02:21;;;;;;;11.55;5.80;;;8.70;99.90;;;8.00;100.00;102912.13;4185063;28;20029;-71
2024/02/20 07:04:22;;;;;;;13.00;6.25;;;8.70;99.90;;;8.02;100.00;102908.47;4185287;28;20381;-72
2024/02/20 07:06:24;;;;;;;11.82;5.50;;;8.70;99.90;;;8.02;100.00;102902.34;4185152;28;20055;-72
2024/02/20 07:08:24;;;;;;;12.23;5.35;;;8.70;99.90;;;8.01;100.00;102909.41;4186000;28;20420;-72
2024/02/20 07:10:25;;;;;;;14.43;4.50;;;8.70;99.90;;;8.05;100.00;102910.06;4168427;28;20116;-72
2024/02/20 07:12:27;;;;;;;12.52;4.43;;;8.80;99.90;;;8.06;100.00;102909.16;4186008;28;20021;-72
2024/02/20 07:14:27;;;;;;;9.90;3.92;;;8.80;99.90;;;8.01;100.00;102884.88;4186236;28;20071;-72
2024/02/20 07:16:28;;;;;;;10.88;4.47;;;8.80;99.90;;;8.11;100.00;102896.59;4184624;28;20518;-72
2024/02/20 07:18:29;;;;;;;10.38;3.90;;;8.80;99.90;;;8.10;100.00;102887.84;4186037;28;20045;-72
2024/02/20 07:20:31;;;;;;;9.35;4.10;;;8.80;99.90;;;8.13;100.00;102889.44;4184883;28;20029;-72
2024/02/20 07:22:32;;;;;;;7.82;2.80;;;8.80;99.90;;;8.13;100.00;102874.53;4185308;28;20088;-72
2024/02/20 07:24:33;;;;;;;10.82;2.50;;;8.80;99.90;;;8.13;100.00;102876.31;4184677;28;20025;-72
2024/02/20 07:26:34;;;;;;;6.20;2.35;;;8.80;99.90;;;8.11;100.00;102870.28;4186006;28;20619;-72
2024/02/20 07:28:37;;;;;;;7.53;2.55;;;8.80;99.90;;;8.12;100.00;102869.38;4184546;28;20594;-73
2024/02/20 07:30:38;;;;;;;6.40;3.22;;;8.90;99.90;;;8.15;100.00;102864.75;4185934;28;20100;-73
2024/02/20 07:32:41;;;;;;;12.65;6.03;;;8.90;99.90;;;8.18;100.00;102869.84;4185594;28;20021;-73
2024/02/20 07:34:42;;;;;;;12.98;6.38;;;8.90;99.90;;;8.20;100.00;102873.25;4184701;28;20039;-73
2024/02/20 07:36:48;;;;;;;12.07;6.45;;;8.90;99.90;;;8.23;100.00;102877.47;4184678;28;20024;-72
2024/02/20 07:38:48;;;;;;;12.90;5.20;;;8.90;99.90;;;8.26;100.00;102869.41;4168606;28;20160;-72
2024/02/20 07:40:50;;;;;;;15.07;6.22;;;8.90;99.90;;;8.24;100.00;102876.56;4170836;28;20504;-72
2024/02/20 07:42:50;;;;;;;9.57;5.22;;;9.00;99.90;;;8.28;100.00;102878.09;4177710;28;20027;-72
2024/02/20 07:44:51;;;;;;;12.15;6.10;;;9.00;99.90;;;8.29;100.00;102882.41;4184578;28;20044;-72
2024/02/20 07:46:53;;;;;;;12.93;6.15;;;9.00;99.90;;;8.27;100.00;102879.00;4185596;28;20036;-72
2024/02/20 07:48:53;;;;;;;12.00;5.72;;;9.00;99.90;;;8.29;100.00;102879.78;4167613;28;20139;-72
2024/02/20 07:50:54;;;;;;;22.65;7.22;;;9.00;99.90;;;8.38;100.00;102889.75;4173882;28;20029;-72
2024/02/20 07:52:55;;;;;;;12.68;5.68;;;9.00;99.90;;;8.43;100.00;102897.38;4184319;28;20029;-72
2024/02/20 07:54:56;;;;;;;13.20;6.03;;;9.10;99.90;;;8.42;100.00;102906.22;4184389;28;20067;-72
2024/02/20 07:56:57;;;;;;;13.90;6.60;;;9.10;99.90;;;8.38;100.00;102928.34;4184232;28;20083;-72
2024/02/20 07:58:58;;;;;;;12.55;6.85;;;9.10;99.90;;;8.43;100.00;102940.31;4185616;28;20028;-72
2024/02/20 08:00:59;;;;;;;12.73;6.32;;;9.10;99.90;;;8.52;100.00;102937.16;4185551;28;20025;-72
2024/02/20 08:03:00;;;;;;;10.57;6.07;;;9.10;99.90;;;8.60;100.00;102940.16;4183973;28;20016;-73
2024/02/20 08:05:01;;;;;;;13.43;7.57;;;9.20;99.90;;;8.66;100.00;102931.09;4185377;28;20040;-73
2024/02/20 08:07:02;;;;;;;12.75;6.70;;;9.30;99.90;;;8.74;100.00;102936.75;4184419;28;20029;-73
2024/02/20 08:09:03;;;;;;;12.38;6.50;;;9.40;99.90;;;8.83;100.00;102950.22;4167521;28;20025;-73
2024/02/20 08:11:04;;;;;;;11.82;5.60;;;9.40;99.90;;;8.94;100.00;102961.88;4174468;28;20194;-73
2024/02/20 08:13:06;;;;;;;8.13;4.72;;;9.50;99.90;;;9.01;100.00;102958.78;4151128;28;20474;-73
2024/02/20 08:15:07;;;;;;;11.13;4.97;;;9.60;99.90;;;9.12;100.00;102956.34;4167606;28;20453;-73
2024/02/20 08:17:08;;;;;;;8.65;4.97;;;9.70;99.90;;;9.23;100.00;102961.81;4167453;28;20026;-73
2024/02/20 08:19:09;;;;;;;9.45;4.53;;;9.90;99.90;;;9.32;100.00;102960.41;4184078;28;20488;-73
2024/02/20 08:21:11;;;;;;;8.48;3.88;;;10.00;99.90;;;9.41;100.00;102962.47;4185028;28;20040;-72
2024/02/20 08:23:12;;;;;;;8.55;4.20;;;10.10;99.90;;;9.50;100.00;102961.06;4184105;28;20524;-73